Terminal Aerodrome Forecast
Issued by NWS

Home | Current Version | Previous Version | Text Only | Print | Product List | Glossary On
Versions: 1 2 3 4 5 6 7 8 9 10 11 12 13 14 15 16 17
000
FTUS43 KAPX 250520
TAFPLN
TAF
KPLN 250520Z 2506/2606 00000KT 5SM BR SKC
      TEMPO 2506/2510 1SM BR
     FM251000 00000KT 4SM BR SKC
      TEMPO 2510/2512 1SM BR
     FM251300 22007KT P6SM SCT250
     FM252100 30006KT P6SM FEW040 SCT250
     FM260100 VRB03KT P6SM SCT250=

USA.gov is the U.S. government's official web portal to all federal, state and local government web resources and services.